Time;durP1;ratioP1;P1;durP2;ratioP2;P2;SDS_P1;SDS_P2;PMS_P1;PMS_P2;Temp;Humidity;BMP_temperature;BMP_pressure;BME280_temperature;BME280_humidity;BME280_pressure;Samples;Min_cycle;Max_cycle;Signal;HPM_P1;HPM_P2
2021/12/06 00:01:06;;;;;;;;;58.00;49.50;8.00;84.70;;;;;;5054725;28;8783;-68
2021/12/06 00:03:56;;;;;;;;;58.00;49.50;8.10;83.90;;;;;;5055319;28;8852;-67
2021/12/06 00:06:25;;;;;;;;;61.00;52.00;8.00;84.90;;;;;;5055889;28;8802;-68
2021/12/06 00:08:51;;;;;;;;;61.50;53.00;7.80;85.50;;;;;;5056079;28;8797;-68
2021/12/06 00:11:17;;;;;;;;;58.00;49.25;7.80;85.80;;;;;;5054098;28;8844;-67
2021/12/06 00:13:46;;;;;;;;;57.25;50.00;7.80;85.90;;;;;;5055774;28;8856;-67
2021/12/06 00:16:18;;;;;;;;;64.50;52.75;7.70;86.30;;;;;;5055583;28;8771;-68
2021/12/06 00:18:45;;;;;;;;;64.75;55.00;7.60;86.90;;;;;;5059162;28;8780;-67
2021/12/06 00:21:12;;;;;;;;;66.25;55.00;7.80;86.20;;;;;;5065405;28;8875;-67
2021/12/06 00:23:39;;;;;;;;;59.75;50.75;7.70;86.40;;;;;;5064240;28;8806;-68
2021/12/06 00:26:06;;;;;;;;;59.75;51.75;7.60;86.50;;;;;;5072013;28;8772;-67
2021/12/06 00:28:35;;;;;;;;;57.50;48.75;7.60;86.60;;;;;;5055778;28;9497;-68
2021/12/06 00:31:02;;;;;;;;;60.50;51.25;7.70;86.10;;;;;;5055419;28;8771;-68
2021/12/06 00:33:29;;;;;;;;;60.00;51.50;7.70;86.20;;;;;;5055405;28;8767;-68
2021/12/06 00:35:57;;;;;;;;;60.75;50.25;7.70;86.00;;;;;;5055286;28;8767;-68
2021/12/06 00:38:23;;;;;;;;;60.00;51.50;7.70;85.60;;;;;;5055539;28;8859;-68
2021/12/06 00:40:50;;;;;;;;;54.50;46.50;7.90;85.10;;;;;;5055604;28;9390;-68
2021/12/06 00:43:16;;;;;;;;;60.00;50.25;7.90;84.60;;;;;;5055120;28;8797;-68
2021/12/06 00:45:43;;;;;;;;;59.75;51.25;7.90;84.60;;;;;;5055208;28;8779;-68
2021/12/06 00:48:09;;;;;;;;;65.00;52.00;7.80;84.60;;;;;;5055124;28;8771;-68
2021/12/06 00:50:38;;;;;;;;;56.00;47.50;7.50;86.10;;;;;;5054981;28;8774;-68
2021/12/06 00:53:05;;;;;;;;;64.25;52.25;7.60;86.20;;;;;;5055007;28;8791;-68
2021/12/06 00:55:31;;;;;;;;;56.25;47.25;7.60;85.80;;;;;;5055230;28;9530;-68
2021/12/06 00:57:58;;;;;;;;;54.25;46.75;7.90;84.10;;;;;;5055188;28;8892;-68
2021/12/06 01:00:27;;;;;;;;;55.00;47.75;7.90;83.90;;;;;;5054932;28;8759;-68
2021/12/06 01:02:54;;;;;;;;;56.00;48.75;7.90;83.40;;;;;;5055112;28;9472;-68
2021/12/06 01:05:23;;;;;;;;;65.00;53.25;7.90;83.60;;;;;;5054457;28;8849;-68
2021/12/06 01:07:50;;;;;;;;;58.00;48.00;7.90;83.60;;;;;;5055076;28;8771;-68
2021/12/06 01:10:17;;;;;;;;;58.75;49.00;7.80;83.60;;;;;;5054791;28;8775;-68
2021/12/06 01:12:44;;;;;;;;;59.50;50.25;7.80;83.90;;;;;;5054903;28;8875;-68
2021/12/06 01:15:10;;;;;;;;;58.75;49.50;7.90;83.30;;;;;;5054611;28;9421;-68
2021/12/06 01:17:36;;;;;;;;;60.50;48.75;7.80;83.70;;;;;;5054648;28;8743;-68
2021/12/06 01:20:07;;;;;;;;;57.50;49.50;7.80;83.40;;;;;;5054650;28;8794;-68
2021/12/06 01:22:44;;;;;;;;;57.25;49.00;7.80;83.60;;;;;;5054570;28;8840;-68
2021/12/06 01:25:24;;;;;;;;;59.25;50.25;7.90;82.90;;;;;;5054521;28;8905;-68
2021/12/06 01:41:17;;;;;;;;;57.00;49.00;7.80;83.20;;;;;;5032394;28;8871;-68
2021/12/06 01:44:05;;;;;;;;;59.25;50.50;7.90;83.00;;;;;;5032179;28;8944;-68
2021/12/06 01:46:33;;;;;;;;;55.50;47.25;7.80;83.20;;;;;;5032282;28;8774;-68
2021/12/06 01:48:59;;;;;;;;;59.50;50.00;7.80;82.90;;;;;;5032207;28;8771;-68
2021/12/06 01:51:25;;;;;;;;;51.25;45.00;8.10;82.10;;;;;;5032318;28;8793;-68
2021/12/06 01:53:51;;;;;;;;;50.50;44.50;8.00;82.20;;;;;;5032112;28;8852;-68
2021/12/06 01:56:17;;;;;;;;;56.50;48.25;7.90;82.80;;;;;;5031909;28;8801;-68
2021/12/06 01:58:43;;;;;;;;;43.00;39.75;8.30;81.80;;;;;;5031850;28;8925;-68
2021/12/06 02:01:10;;;;;;;;;55.25;47.00;8.70;79.40;;;;;;5032351;28;9393;-68
2021/12/06 02:03:36;;;;;;;;;54.50;47.25;8.40;79.50;;;;;;5035859;28;8888;-68
2021/12/06 02:06:03;;;;;;;;;52.00;44.75;8.50;79.00;;;;;;5035761;28;8836;-68
2021/12/06 02:08:29;;;;;;;;;55.50;48.25;8.40;79.50;;;;;;5036016;28;8775;-68
2021/12/06 02:11:00;;;;;;;;;58.50;50.50;8.30;80.20;;;;;;5037132;28;8766;-68
2021/12/06 02:13:33;;;;;;;;;54.75;47.00;7.90;82.20;;;;;;5057960;28;8824;-68
2021/12/06 02:16:01;;;;;;;;;54.50;47.75;7.80;82.90;;;;;;5058121;28;8758;-68
2021/12/06 02:18:54;;;;;;;;;53.75;47.00;7.60;83.80;;;;;;5057740;28;8779;-68
2021/12/06 02:21:18;;;;;;;;;56.75;46.75;7.50;84.70;;;;;;5057555;28;8829;-68
2021/12/06 02:23:46;;;;;;;;;52.25;45.50;7.60;84.80;;;;;;5057823;28;9578;-68
2021/12/06 02:26:12;;;;;;;;;45.50;41.50;7.50;85.40;;;;;;5057807;28;8763;-68
2021/12/06 02:28:38;;;;;;;;;55.00;48.00;7.50;84.90;;;;;;5057920;28;8781;-68
2021/12/06 02:31:04;;;;;;;;;61.00;48.50;7.50;84.80;;;;;;5057916;28;8797;-69
2021/12/06 02:33:30;;;;;;;;;50.00;40.25;7.60;84.70;;;;;;5057540;28;8791;-68
2021/12/06 02:35:56;;;;;;;;;60.75;49.50;7.50;84.90;;;;;;5057774;28;8783;-68
2021/12/06 02:38:22;;;;;;;;;51.50;44.00;7.60;84.80;;;;;;5057430;28;8795;-68
2021/12/06 02:40:48;;;;;;;;;56.75;46.00;7.50;84.90;;;;;;5057652;28;8785;-68
2021/12/06 02:43:14;;;;;;;;;54.75;47.25;7.50;85.20;;;;;;5057326;28;8794;-68
2021/12/06 02:45:41;;;;;;;;;58.25;46.75;7.80;83.80;;;;;;5057513;28;8859;-68
2021/12/06 02:48:10;;;;;;;;;61.25;52.75;7.50;84.80;;;;;;5057255;28;8801;-68
2021/12/06 02:50:43;;;;;;;;;55.00;47.00;7.50;85.40;;;;;;5057109;28;8791;-68
2021/12/06 02:53:09;;;;;;;;;63.00;51.25;7.60;85.20;;;;;;5057420;28;8852;-68
2021/12/06 02:55:36;;;;;;;;;57.50;49.25;7.50;85.10;;;;;;5057118;28;8771;-68
2021/12/06 02:58:18;;;;;;;;;58.25;49.75;7.60;84.40;;;;;;5057151;28;8862;-68
2021/12/06 03:00:55;;;;;;;;;55.25;47.25;7.10;86.90;;;;;;5057057;28;8856;-68
2021/12/06 03:03:21;;;;;;;;;63.00;49.00;7.00;87.50;;;;;;5056963;28;8751;-67
2021/12/06 03:05:50;;;;;;;;;55.50;47.50;7.10;86.70;;;;;;5056485;28;8802;-68
2021/12/06 03:08:33;;;;;;;;;57.00;49.25;7.00;87.20;;;;;;5055925;28;8789;-68
2021/12/06 03:10:59;;;;;;;;;58.75;51.00;6.80;88.50;;;;;;5055678;28;8789;-68
2021/12/06 03:13:25;;;;;;;;;49.25;45.00;6.80;88.40;;;;;;5055239;28;8743;-68
2021/12/06 03:15:50;;;;;;;;;53.75;46.25;7.10;86.90;;;;;;5055759;28;8775;-68
2021/12/06 03:18:16;;;;;;;;;51.00;45.00;6.90;86.30;;;;;;5055574;28;8779;-68
2021/12/06 03:20:42;;;;;;;;;53.00;45.75;7.00;86.60;;;;;;5055924;28;8774;-68
2021/12/06 03:23:08;;;;;;;;;57.75;49.00;7.20;85.70;;;;;;5055627;28;8775;-67
2021/12/06 03:25:33;;;;;;;;;50.75;44.25;7.30;84.70;;;;;;5055559;28;8903;-68
2021/12/06 03:28:01;;;;;;;;;55.00;47.00;7.20;84.70;;;;;;5055973;28;8817;-68
2021/12/06 03:30:26;;;;;;;;;44.00;40.00;7.40;83.60;;;;;;5054584;28;8775;-68
2021/12/06 03:32:52;;;;;;;;;48.75;44.00;7.40;83.20;;;;;;5055483;28;9405;-68
2021/12/06 03:35:18;;;;;;;;;50.00;44.50;7.50;83.10;;;;;;5055450;28;8790;-68
2021/12/06 03:37:44;;;;;;;;;53.00;46.00;7.50;81.90;;;;;;5055635;28;8791;-68
2021/12/06 03:40:10;;;;;;;;;51.00;45.50;7.40;82.60;;;;;;5055364;28;8771;-68
2021/12/06 03:42:38;;;;;;;;;53.00;45.75;7.30;82.90;;;;;;5055479;28;8787;-68
2021/12/06 03:45:09;;;;;;;;;52.00;44.50;7.10;83.90;;;;;;5055513;28;8818;-68
2021/12/06 03:47:35;;;;;;;;;49.75;45.00;7.30;83.80;;;;;;5055401;28;9666;-68
2021/12/06 03:50:04;;;;;;;;;45.00;41.00;7.20;83.30;;;;;;5055493;28;8763;-68
2021/12/06 03:52:30;;;;;;;;;47.25;43.00;6.90;84.50;;;;;;5055129;28;8809;-68
2021/12/06 03:54:57;;;;;;;;;53.25;47.25;6.90;85.40;;;;;;5055117;28;8893;-68
2021/12/06 03:57:24;;;;;;;;;42.50;41.00;6.90;85.30;;;;;;5055477;28;8819;-68
2021/12/06 03:59:51;;;;;;;;;55.50;48.25;7.10;85.00;;;;;;5055082;28;8762;-68
2021/12/06 04:02:19;;;;;;;;;48.50;44.00;7.50;83.00;;;;;;5054983;28;8877;-68
2021/12/06 04:04:45;;;;;;;;;59.50;48.25;7.70;81.40;;;;;;5054921;28;8818;-68
2021/12/06 04:07:11;;;;;;;;;54.25;46.75;8.00;79.70;;;;;;5007012;28;1390276;-68
2021/12/06 04:09:38;;;;;;;;;56.75;46.25;8.30;78.40;;;;;;5055830;28;8779;-68
2021/12/06 04:12:09;;;;;;;;;45.25;42.00;8.10;78.10;;;;;;5055925;28;8877;-68
2021/12/06 04:14:35;;;;;;;;;50.75;45.25;7.70;80.40;;;;;;5055766;28;9443;-68
2021/12/06 04:17:01;;;;;;;;;50.50;44.75;7.50;81.90;;;;;;5055747;28;8864;-68
2021/12/06 04:19:27;;;;;;;;;49.50;44.00;7.50;82.00;;;;;;5055615;28;8767;-68
2021/12/06 04:21:53;;;;;;;;;46.00;42.00;7.50;81.90;;;;;;5055695;28;8789;-68
2021/12/06 04:24:19;;;;;;;;;54.75;47.25;7.40;82.40;;;;;;5053698;28;8810;-68
2021/12/06 04:26:45;;;;;;;;;48.00;43.00;7.20;83.30;;;;;;5055605;28;8807;-68
2021/12/06 04:29:12;;;;;;;;;44.25;41.00;7.20;84.10;;;;;;5055409;28;8774;-68
2021/12/06 04:31:46;;;;;;;;;45.25;41.25;7.50;82.80;;;;;;5055423;28;8798;-68
2021/12/06 04:34:12;;;;;;;;;43.75;40.00;7.50;81.90;;;;;;5054474;28;8771;-68
2021/12/06 04:36:41;;;;;;;;;45.75;41.50;7.60;81.50;;;;;;5055617;28;8840;-68
2021/12/06 04:39:09;;;;;;;;;55.25;46.00;7.60;81.80;;;;;;5060020;28;8841;-68
2021/12/06 04:41:36;;;;;;;;;31.25;30.50;7.60;81.30;;;;;;5059782;28;8779;-68
2021/12/06 04:44:02;;;;;;;;;51.75;44.00;7.20;83.10;;;;;;5070778;28;8811;-68
2021/12/06 04:46:28;;;;;;;;;44.50;40.00;7.20;84.10;;;;;;5055154;28;8865;-68
2021/12/06 04:48:54;;;;;;;;;49.75;44.50;7.30;83.80;;;;;;5055045;28;8837;-68
2021/12/06 04:51:21;;;;;;;;;45.25;41.50;7.20;83.90;;;;;;5055119;28;8782;-68
2021/12/06 04:53:47;;;;;;;;;47.00;43.00;7.50;82.50;;;;;;5055000;28;8881;-68
2021/12/06 04:56:28;;;;;;;;;46.00;42.00;7.30;82.90;;;;;;5054875;28;8797;-68
2021/12/06 04:58:53;;;;;;;;;47.00;41.25;7.20;83.30;;;;;;5055069;28;8883;-68
2021/12/06 05:01:27;;;;;;;;;34.75;34.00;7.00;84.00;;;;;;5055328;28;8766;-68
2021/12/06 05:04:00;;;;;;;;;41.75;38.50;7.20;83.50;;;;;;5054804;28;8924;-68
2021/12/06 05:06:29;;;;;;;;;49.25;43.50;7.30;82.80;;;;;;5054682;28;8830;-68
2021/12/06 05:08:59;;;;;;;;;56.50;45.75;7.50;81.90;;;;;;5054688;28;8890;-68
2021/12/06 05:11:28;;;;;;;;;40.50;38.75;7.50;81.60;;;;;;5054800;28;8767;-68
2021/12/06 05:13:57;;;;;;;;;36.50;36.00;7.70;80.50;;;;;;5054942;28;8767;-68
2021/12/06 05:16:23;;;;;;;;;34.50;34.50;7.50;80.10;;;;;;5055008;28;9499;-68
2021/12/06 05:18:50;;;;;;;;;35.50;35.50;7.20;81.60;;;;;;5054872;28;8766;-68
2021/12/06 05:21:16;;;;;;;;;39.00;38.25;7.00;83.00;;;;;;5054883;28;9453;-68
2021/12/06 05:23:42;;;;;;;;;37.50;37.00;6.70;83.60;;;;;;5054703;28;8822;-68
2021/12/06 05:26:08;;;;;;;;;42.50;38.50;6.40;85.30;;;;;;5054824;28;8843;-68
2021/12/06 05:28:40;;;;;;;;;31.75;31.75;6.30;86.10;;;;;;5054407;28;8921;-68
2021/12/06 05:31:14;;;;;;;;;34.50;34.25;6.50;84.80;;;;;;5054508;28;8774;-68
2021/12/06 05:33:44;;;;;;;;;38.50;38.00;6.60;84.70;;;;;;5054789;28;9216;-68
2021/12/06 05:36:11;;;;;;;;;46.75;42.00;7.10;83.10;;;;;;5054537;28;8789;-68
2021/12/06 05:38:37;;;;;;;;;49.00;44.00;7.40;81.70;;;;;;5061713;28;8799;-68
2021/12/06 05:41:04;;;;;;;;;52.00;45.50;7.70;79.80;;;;;;5065742;28;9434;-68
2021/12/06 05:43:30;;;;;;;;;45.75;41.25;8.30;77.40;;;;;;5067952;28;8923;-68
2021/12/06 05:45:57;;;;;;;;;52.75;46.00;8.40;75.80;;;;;;5062551;28;8890;-68
2021/12/06 05:48:23;;;;;;;;;54.00;46.00;8.50;75.30;;;;;;5054317;28;8790;-68
2021/12/06 05:50:49;;;;;;;;;53.75;47.50;8.30;76.10;;;;;;5061702;28;9410;-68
2021/12/06 05:53:17;;;;;;;;;58.00;49.25;8.90;74.30;;;;;;5062706;28;8760;-68
2021/12/06 05:55:43;;;;;;;;;57.00;45.50;9.10;72.70;;;;;;5069355;28;8804;-69
2021/12/06 05:58:11;;;;;;;;;60.00;49.00;8.80;73.30;;;;;;5054476;28;8806;-70
2021/12/06 06:00:38;;;;;;;;;57.25;49.25;8.70;73.60;;;;;;5059592;28;8799;-70
2021/12/06 06:03:05;;;;;;;;;53.25;46.50;8.70;73.10;;;;;;5072318;28;8870;-70
2021/12/06 06:05:34;;;;;;;;;53.75;47.00;8.70;73.00;;;;;;5053898;28;8814;-70
2021/12/06 06:08:00;;;;;;;;;61.50;50.00;7.90;75.10;;;;;;5053886;28;8860;-70
2021/12/06 06:10:28;;;;;;;;;58.50;50.75;7.80;76.10;;;;;;5054070;28;8751;-70
2021/12/06 06:12:53;;;;;;;;;54.25;47.00;7.50;77.20;;;;;;5053901;28;8782;-71
2021/12/06 06:15:19;;;;;;;;;62.50;51.25;7.60;76.60;;;;;;5054013;28;8771;-70
2021/12/06 06:17:47;;;;;;;;;50.50;44.50;8.20;74.90;;;;;;5053053;28;8778;-71
2021/12/06 06:20:20;;;;;;;;;57.75;48.75;8.60;73.10;;;;;;5054154;28;9452;-70
2021/12/06 06:22:46;;;;;;;;;49.25;43.50;8.60;71.90;;;;;;5053946;28;8778;-71
2021/12/06 06:25:12;;;;;;;;;55.75;48.00;8.50;72.40;;;;;;5054043;28;8810;-70
2021/12/06 06:27:37;;;;;;;;;55.50;47.00;8.70;71.40;;;;;;5054064;28;8925;-70
2021/12/06 06:30:04;;;;;;;;;59.25;50.00;8.80;71.10;;;;;;5053810;28;8777;-71
2021/12/06 06:32:30;;;;;;;;;53.25;46.75;8.00;73.10;;;;;;5052814;28;8767;-70
2021/12/06 06:34:56;;;;;;;;;55.00;46.50;7.40;75.60;;;;;;5054046;28;8836;-70
2021/12/06 06:37:22;;;;;;;;;56.75;48.25;7.40;76.50;;;;;;5053748;28;8866;-70
2021/12/06 06:39:48;;;;;;;;;58.50;50.00;7.50;76.30;;;;;;5053824;28;8778;-71
2021/12/06 06:42:14;;;;;;;;;60.75;51.75;7.70;75.70;;;;;;5054023;28;8771;-70
2021/12/06 06:44:39;;;;;;;;;53.25;44.25;8.00;74.20;;;;;;5052687;28;8837;-70
2021/12/06 06:47:05;;;;;;;;;63.50;52.50;8.10;73.30;;;;;;5053694;28;8767;-70
2021/12/06 06:49:31;;;;;;;;;64.25;54.75;7.60;75.30;;;;;;5057498;28;8774;-70
2021/12/06 06:51:59;;;;;;;;;64.25;53.75;7.50;75.50;;;;;;5057592;28;8793;-70
2021/12/06 06:54:25;;;;;;;;;55.75;48.25;7.50;76.70;;;;;;5057275;28;8856;-70
2021/12/06 06:56:51;;;;;;;;;58.75;50.00;7.40;76.10;;;;;;5057237;28;8803;-70
2021/12/06 06:59:17;;;;;;;;;63.00;53.75;7.50;75.90;;;;;;5057409;28;8783;-70
2021/12/06 07:01:45;;;;;;;;;59.50;51.50;7.10;77.30;;;;;;5057235;28;8775;-70
2021/12/06 07:04:11;;;;;;;;;62.00;52.25;7.20;77.60;;;;;;5057011;28;8799;-70
2021/12/06 07:06:37;;;;;;;;;67.50;57.00;7.00;78.20;;;;;;5056977;28;8875;-70
2021/12/06 07:09:04;;;;;;;;;59.25;50.00;7.10;77.90;;;;;;5057259;28;8771;-70
2021/12/06 07:11:30;;;;;;;;;59.25;50.75;7.30;76.30;;;;;;5057027;28;8779;-70
2021/12/06 07:13:56;;;;;;;;;66.50;56.50;7.00;76.30;;;;;;5057105;28;8903;-71
2021/12/06 07:16:22;;;;;;;;;65.00;54.75;7.00;77.90;;;;;;5056980;28;9855;-70
2021/12/06 07:18:48;;;;;;;;;63.25;53.50;7.10;76.50;;;;;;5055780;28;8909;-70
2021/12/06 07:21:14;;;;;;;;;47.50;43.25;7.50;75.30;;;;;;5057039;28;8771;-71
2021/12/06 07:23:41;;;;;;;;;63.00;53.75;7.20;76.20;;;;;;5056907;28;8786;-71
2021/12/06 07:26:14;;;;;;;;;55.50;43.00;6.80;77.30;;;;;;5056788;28;8751;-70
2021/12/06 07:28:41;;;;;;;;;68.50;56.25;6.90;77.50;;;;;;5056723;28;8779;-75
2021/12/06 07:31:09;;;;;;;;;71.00;58.50;7.00;77.70;;;;;;5056646;28;8767;-74
2021/12/06 07:33:35;;;;;;;;;60.50;50.75;7.30;75.90;;;;;;5056484;28;8805;-72
2021/12/06 07:36:02;;;;;;;;;72.50;59.50;7.60;75.10;;;;;;5056566;28;8755;-72
2021/12/06 07:38:28;;;;;;;;;80.75;63.25;7.50;75.20;;;;;;5056549;28;8860;-69
2021/12/06 07:40:55;;;;;;;;;75.25;61.00;8.00;73.50;;;;;;5056404;28;8779;-69
2021/12/06 07:43:21;;;;;;;;;72.25;59.75;8.20;72.10;;;;;;5056489;28;8884;-68
2021/12/06 07:45:47;;;;;;;;;67.75;56.50;8.40;71.90;;;;;;5056262;28;8805;-68
2021/12/06 07:48:14;;;;;;;;;64.25;54.25;8.40;72.00;;;;;;5056235;28;8779;-68
2021/12/06 07:50:40;;;;;;;;;43.25;40.00;8.30;72.00;;;;;;5056395;28;8763;-68
2021/12/06 07:53:06;;;;;;;;;48.75;43.00;7.50;73.60;;;;;;5056152;28;8779;-68
2021/12/06 07:55:34;;;;;;;;;47.50;43.25;7.00;76.40;;;;;;5056399;28;8783;-70
2021/12/06 07:58:05;;;;;;;;;45.00;41.00;6.80;77.40;;;;;;5056474;28;8806;-68
2021/12/06 08:00:33;;;;;;;;;51.25;45.25;6.30;79.60;;;;;;5055233;28;8786;-69
2021/12/06 08:03:00;;;;;;;;;48.00;44.25;6.50;79.40;;;;;;5056198;28;8867;-73
2021/12/06 08:05:30;;;;;;;;;55.25;46.50;6.70;78.30;;;;;;5055501;28;8833;-69
2021/12/06 08:07:57;;;;;;;;;58.50;51.00;6.90;77.50;;;;;;5056257;28;8775;-65
2021/12/06 08:10:23;;;;;;;;;56.25;49.00;7.30;76.10;;;;;;5056093;28;8771;-68
2021/12/06 08:12:49;;;;;;;;;50.50;44.50;7.40;75.10;;;;;;5055836;28;9499;-68
2021/12/06 08:15:15;;;;;;;;;55.25;47.25;7.30;74.40;;;;;;5055887;28;8767;-68
2021/12/06 08:17:41;;;;;;;;;57.25;48.50;6.90;76.40;;;;;;5055849;28;8775;-69
2021/12/06 08:20:09;;;;;;;;;50.50;45.25;7.10;76.00;;;;;;5055606;28;8763;-69
2021/12/06 08:22:36;;;;;;;;;49.50;43.75;6.80;77.00;;;;;;5055811;28;8775;-69
2021/12/06 08:25:02;;;;;;;;;51.25;45.25;6.60;77.00;;;;;;5055793;28;8864;-68
2021/12/06 08:27:28;;;;;;;;;59.50;48.50;6.40;78.60;;;;;;5055850;28;8819;-69
2021/12/06 08:29:53;;;;;;;;;60.50;49.25;6.30;78.70;;;;;;5055539;28;8855;-68
2021/12/06 08:32:20;;;;;;;;;59.75;49.50;6.60;77.50;;;;;;5055421;28;8767;-69
2021/12/06 08:34:47;;;;;;;;;63.75;50.00;6.50;77.60;;;;;;5055449;28;8767;-69
2021/12/06 08:37:13;;;;;;;;;64.50;52.00;6.50;78.10;;;;;;5054633;28;8771;-70
2021/12/06 08:39:39;;;;;;;;;58.50;48.75;6.70;77.00;;;;;;5055565;28;8751;-69
2021/12/06 08:42:06;;;;;;;;;59.50;49.25;7.10;76.00;;;;;;5055503;28;8763;-69
2021/12/06 08:44:32;;;;;;;;;59.75;51.00;7.50;74.00;;;;;;5055454;28;9550;-70
2021/12/06 08:46:58;;;;;;;;;58.00;49.50;7.30;74.10;;;;;;5055163;28;8767;-69
2021/12/06 08:49:25;;;;;;;;;64.50;51.75;7.70;73.30;;;;;;5055129;28;8865;-68
2021/12/06 08:51:55;;;;;;;;;54.25;47.00;8.10;71.50;;;;;;5055338;28;8817;-69
2021/12/06 08:54:26;;;;;;;;;48.25;43.25;8.20;69.60;;;;;;5055123;28;8775;-69
2021/12/06 08:56:53;;;;;;;;;54.00;46.25;8.00;70.40;;;;;;5054913;28;8826;-69
2021/12/06 08:59:19;;;;;;;;;60.00;51.50;7.80;71.40;;;;;;5054806;28;8797;-69
2021/12/06 09:01:45;;;;;;;;;55.75;48.00;7.80;71.50;;;;;;5054991;28;8751;-69
2021/12/06 09:04:12;;;;;;;;;53.50;46.00;7.70;72.00;;;;;;5055110;28;8915;-68
2021/12/06 09:06:43;;;;;;;;;45.00;41.50;7.70;71.40;;;;;;5054739;28;8799;-68
2021/12/06 09:09:10;;;;;;;;;49.50;43.00;7.20;72.40;;;;;;5054856;28;8778;-69
2021/12/06 09:11:37;;;;;;;;;44.00;41.00;7.30;72.60;;;;;;5054417;28;8783;-70
2021/12/06 09:14:03;;;;;;;;;46.00;42.75;6.80;74.40;;;;;;5054224;28;8791;-69
2021/12/06 09:16:30;;;;;;;;;40.50;37.25;6.20;77.10;;;;;;5054504;28;9528;-69
2021/12/06 09:18:56;;;;;;;;;52.25;45.75;6.20;77.60;;;;;;5066345;28;9469;-68
2021/12/06 09:21:22;;;;;;;;;39.25;37.75;6.10;78.30;;;;;;5074723;28;9479;-69
2021/12/06 09:23:50;;;;;;;;;41.25;38.00;5.90;78.90;;;;;;5074440;28;8902;-69
2021/12/06 09:26:16;;;;;;;;;53.25;46.50;6.30;77.80;;;;;;5074427;28;8779;-68
2021/12/06 09:28:43;;;;;;;;;61.00;49.25;6.50;77.20;;;;;;5073741;28;8787;-68
2021/12/06 09:31:10;;;;;;;;;58.25;49.50;6.80;76.00;;;;;;5074485;28;8780;-67
2021/12/06 09:33:37;;;;;;;;;58.50;49.75;7.20;74.40;;;;;;5074523;28;8772;-67
2021/12/06 09:36:04;;;;;;;;;56.75;49.00;7.00;74.50;;;;;;5074430;28;8784;-69
2021/12/06 09:38:38;;;;;;;;;66.25;56.25;7.10;75.10;;;;;;5074206;28;8776;-69
2021/12/06 09:41:10;;;;;;;;;56.50;49.25;7.60;73.50;;;;;;5074628;28;8756;-70
2021/12/06 09:43:39;;;;;;;;;54.50;47.00;7.60;72.30;;;;;;5074357;28;8753;-65
2021/12/06 09:46:07;;;;;;;;;61.00;52.25;7.20;73.00;;;;;;5074290;28;8769;-68
2021/12/06 09:48:33;;;;;;;;;58.50;51.00;7.00;74.20;;;;;;5074249;28;8777;-67
2021/12/06 09:51:05;;;;;;;;;52.00;45.25;7.30;73.80;;;;;;5073918;28;8768;-66
2021/12/06 09:53:34;;;;;;;;;47.25;43.00;7.50;73.40;;;;;;5073049;28;8744;-65
2021/12/06 09:56:03;;;;;;;;;56.25;47.00;7.20;72.70;;;;;;5073786;28;8804;-66
2021/12/06 09:58:30;;;;;;;;;42.75;40.00;7.30;73.10;;;;;;5074068;28;8800;-66
2021/12/06 10:01:04;;;;;;;;;45.75;42.25;6.90;73.90;;;;;;5074194;28;8826;-69
2021/12/06 10:03:30;;;;;;;;;49.00;44.50;6.90;74.60;;;;;;5074202;28;8810;-68
2021/12/06 10:06:02;;;;;;;;;45.00;41.75;6.80;75.00;;;;;;5073864;28;8780;-67
2021/12/06 10:08:33;;;;;;;;;33.25;33.25;6.60;76.20;;;;;;5074500;28;8769;-66
2021/12/06 10:10:59;;;;;;;;;39.50;38.50;6.40;76.40;;;;;;5074182;28;8760;-68
2021/12/06 10:13:25;;;;;;;;;44.00;41.00;6.20;78.00;;;;;;5074102;28;8756;-66
2021/12/06 10:15:52;;;;;;;;;41.25;37.75;6.10;78.20;;;;;;5074103;28;8763;-68
2021/12/06 10:18:20;;;;;;;;;48.50;43.50;6.20;79.10;;;;;;5074024;28;8807;-67
2021/12/06 10:20:48;;;;;;;;;57.50;49.00;6.70;77.40;;;;;;5074026;28;8783;-70
2021/12/06 10:23:16;;;;;;;;;67.00;55.00;7.20;74.60;;;;;;5075976;28;8848;-69
2021/12/06 10:25:45;;;;;;;;;64.25;54.50;7.20;74.10;;;;;;5077870;28;8792;-67
2021/12/06 10:28:12;;;;;;;;;67.00;55.75;7.20;74.60;;;;;;5078100;28;8800;-68
2021/12/06 10:30:49;;;;;;;;;61.00;51.75;7.80;72.60;;;;;;5078018;28;8849;-68
2021/12/06 10:33:19;;;;;;;;;61.75;53.25;7.90;71.10;;;;;;5077998;28;8799;-69
2021/12/06 10:35:49;;;;;;;;;58.50;50.75;8.20;70.10;;;;;;5077653;28;8756;-67
2021/12/06 10:38:21;;;;;;;;;63.00;52.50;7.50;71.90;;;;;;5077798;28;8788;-69
2021/12/06 10:40:48;;;;;;;;;62.25;53.25;7.70;71.80;;;;;;5077530;28;9614;-67
2021/12/06 10:43:14;;;;;;;;;58.00;48.50;7.60;71.90;;;;;;5077784;28;9473;-67
2021/12/06 10:45:47;;;;;;;;;61.50;53.00;7.30;73.10;;;;;;5077602;28;8822;-67
2021/12/06 10:48:14;;;;;;;;;66.25;52.25;6.90;74.70;;;;;;5077769;28;8831;-72
2021/12/06 10:50:52;;;;;;;;;47.50;43.75;7.20;73.80;;;;;;5077739;28;8861;-68
2021/12/06 10:53:37;;;;;;;;;52.50;45.25;7.20;72.60;;;;;;5077446;28;8774;-67
2021/12/06 10:56:04;;;;;;;;;52.00;45.00;7.20;72.40;;;;;;5077432;28;8800;-64
2021/12/06 10:58:30;;;;;;;;;56.25;48.25;7.30;72.70;;;;;;5076520;28;8788;-64
2021/12/06 11:01:06;;;;;;;;;50.75;44.25;7.10;73.00;;;;;;5075561;28;8950;-66
2021/12/06 11:03:44;;;;;;;;;60.75;50.75;6.50;75.80;;;;;;5074181;28;8772;-65
2021/12/06 11:06:19;;;;;;;;;56.00;47.50;6.30;77.80;;;;;;5073656;28;8784;-65
2021/12/06 11:08:47;;;;;;;;;52.50;46.50;6.50;77.30;;;;;;5073182;28;8842;-66
2021/12/06 11:11:16;;;;;;;;;60.25;51.25;6.50;76.70;;;;;;5075695;28;9518;-66
2021/12/06 11:13:45;;;;;;;;;58.75;50.75;6.90;75.60;;;;;;5075820;28;8760;-65
2021/12/06 11:16:17;;;;;;;;;52.50;45.50;7.10;74.50;;;;;;5075595;28;8779;-65
2021/12/06 11:18:47;;;;;;;;;64.75;55.00;7.40;74.10;;;;;;5075575;28;8841;-64
2021/12/06 11:21:15;;;;;;;;;52.25;45.50;7.60;72.80;;;;;;5075439;28;8834;-65
2021/12/06 11:24:00;;;;;;;;;44.25;41.00;7.20;73.70;;;;;;5075366;28;8749;-65
2021/12/06 11:26:27;;;;;;;;;62.00;52.25;6.50;76.70;;;;;;5072669;28;8810;-64
2021/12/06 11:28:52;;;;;;;;;44.50;41.75;6.40;77.70;;;;;;5075515;28;8776;-63
2021/12/06 11:31:19;;;;;;;;;41.75;39.50;6.40;77.70;;;;;;5075300;28;8756;-63
2021/12/06 11:33:58;;;;;;;;;46.75;43.00;6.00;79.30;;;;;;5072480;28;8788;-69
2021/12/06 11:36:25;;;;;;;;;47.75;43.25;5.90;81.00;;;;;;5076500;28;8752;-66
2021/12/06 11:39:05;;;;;;;;;43.25;41.00;6.30;79.40;;;;;;5076496;28;8867;-68
2021/12/06 11:41:31;;;;;;;;;49.50;44.50;6.30;78.50;;;;;;5076721;28;8829;-68
2021/12/06 11:44:11;;;;;;;;;46.50;42.00;6.50;77.70;;;;;;5075832;28;8788;-67
2021/12/06 11:46:37;;;;;;;;;49.00;45.00;6.70;76.20;;;;;;5076577;28;8756;-70
2021/12/06 11:49:13;;;;;;;;;48.25;42.50;6.30;78.10;;;;;;5076681;28;8920;-74
2021/12/06 11:51:39;;;;;;;;;48.00;43.25;6.40;77.80;;;;;;5076163;28;8777;-75
2021/12/06 11:54:05;;;;;;;;;47.25;42.75;6.90;76.40;;;;;;5065781;28;8818;-74
2021/12/06 11:56:36;;;;;;;;;52.25;46.00;6.80;75.50;;;;;;5064887;28;8783;-74
2021/12/06 11:59:05;;;;;;;;;47.25;42.75;6.60;75.90;;;;;;5068034;28;8861;-75
2021/12/06 12:01:37;;;;;;;;;58.00;48.25;7.10;75.30;;;;;;5064005;28;8785;-74
2021/12/06 12:04:15;;;;;;;;;62.75;53.25;7.10;74.70;;;;;;5068732;28;8816;-74
2021/12/06 12:06:47;;;;;;;;;58.00;50.50;7.10;75.20;;;;;;5056983;28;8834;-75
2021/12/06 12:09:30;;;;;;;;;66.50;56.00;7.40;74.00;;;;;;5057351;28;8827;-74
2021/12/06 12:12:15;;;;;;;;;64.50;55.00;7.10;75.00;;;;;;5063094;28;8763;-74
2021/12/06 12:14:49;;;;;;;;;54.00;47.25;7.40;74.00;;;;;;5055791;28;8774;-74
2021/12/06 12:17:19;;;;;;;;;61.50;51.00;7.50;73.20;;;;;;5067206;28;8815;-75
2021/12/06 12:19:48;;;;;;;;;58.25;49.25;7.20;73.60;;;;;;5055974;28;8775;-77
2021/12/06 12:22:16;;;;;;;;;62.00;49.00;6.80;75.10;;;;;;5055726;28;8758;-70
2021/12/06 12:24:46;;;;;;;;;60.50;50.00;6.90;75.80;;;;;;5063409;28;8882;-71
2021/12/06 12:27:24;;;;;;;;;58.00;50.25;7.40;74.20;;;;;;5064902;28;8807;-69
2021/12/06 12:29:54;;;;;;;;;51.25;46.00;7.30;73.70;;;;;;5065888;28;9588;-71
2021/12/06 12:32:21;;;;;;;;;57.75;50.00;7.40;73.90;;;;;;5070876;28;8755;-71
2021/12/06 12:34:49;;;;;;;;;46.50;42.25;6.60;76.20;;;;;;5074274;28;8867;-72
2021/12/06 12:37:18;;;;;;;;;60.25;51.25;6.50;77.70;;;;;;5073826;28;8757;-69
2021/12/06 12:40:01;;;;;;;;;61.50;52.75;6.50;77.70;;;;;;5073337;28;8791;-69
2021/12/06 12:42:27;;;;;;;;;62.75;53.00;6.80;76.30;;;;;;5072985;28;8748;-69
2021/12/06 12:44:56;;;;;;;;;56.50;49.00;6.70;76.50;;;;;;5070712;28;8830;-70
2021/12/06 12:47:31;;;;;;;;;60.25;51.25;6.60;76.90;;;;;;5073703;28;8759;-71
2021/12/06 12:50:01;;;;;;;;;66.50;55.00;6.50;77.20;;;;;;5071584;28;8813;-70
2021/12/06 12:52:59;;;;;;;;;50.00;45.50;6.70;76.60;;;;;;5074351;28;8784;-69
2021/12/06 12:55:31;;;;;;;;;63.00;54.00;6.70;76.80;;;;;;5071394;28;8764;-68
2021/12/06 12:58:11;;;;;;;;;64.75;55.25;6.90;75.70;;;;;;5072965;28;8789;-68
2021/12/06 13:00:51;;;;;;;;;73.75;60.75;6.90;76.40;;;;;;5070956;28;9608;-68
2021/12/06 13:03:34;;;;;;;;;70.50;58.25;7.20;75.30;;;;;;5073168;28;8788;-71
2021/12/06 13:06:31;;;;;;;;;76.50;63.00;7.50;73.70;;;;;;5071267;28;8801;-70